CDT,Max TemperatureF,Mean TemperatureF,Min TemperatureF,Max Dew PointF,MeanDew PointF,Min DewpointF,Max Humidity, Mean Humidity, Min Humidity, Max Sea Level PressureIn, Mean Sea Level PressureIn, Min Sea Level PressureIn, Max VisibilityMiles, Mean VisibilityMiles, Min VisibilityMiles, Max Wind SpeedMPH, Mean Wind SpeedMPH, Max Gust SpeedMPH,PrecipitationIn, CloudCover, Events, WindDirDegrees
2013-8-1,69,61,53,54,49,46,82,68,46,29.93,29.90,29.85,10,10,7,12,6,23,0.01,2,Rain-Thunderstorm,281
2013-8-2,68,60,51,50,47,43,88,66,43,30.01,29.90,29.81,10,10,10,15,7,23,0.00,1,,302
2013-8-3,62,55,46,48,47,43,87,70,52,30.22,30.11,30.01,10,10,10,14,7,22,0.00,2,,313
2013-8-4,66,52,37,48,42,34,93,68,42,30.25,30.19,30.06,10,10,7,9,3,16,0.00,2,,224
2013-8-5,62,54,46,54,50,43,94,83,72,30.06,29.91,29.82,10,9,0,7,1,,0.02,5,Fog-Rain,161
2013-8-6,69,60,50,57,53,46,94,79,56,29.82,29.79,29.77,10,7,0,10,2,,0.00,5,Fog,268
2013-8-7,64,57,50,54,46,41,88,65,42,30.01,29.90,29.78,10,10,7,12,5,18,0.00,3,,302
2013-8-8,66,54,42,46,43,37,87,64,40,30.03,30.00,29.96,10,10,10,12,5,20,0.00,2,,266
2013-8-9,64,55,46,50,46,43,87,74,52,30.10,29.98,29.91,10,10,4,14,6,23,0.00,2,Rain,293
2013-8-10,68,55,42,52,46,39,93,72,40,30.17,30.13,30.09,10,10,5,8,5,9,0.00,1,,295
2013-8-11,69,56,44,55,49,39,93,74,46,30.10,30.07,30.02,10,10,7,8,3,16,0.00,2,Rain,271
2013-8-12,64,53,42,52,45,39,88,71,45,30.11,30.03,29.97,10,10,7,18,6,25,0.00,2,,319
2013-8-13,60,50,41,45,43,37,93,72,48,30.21,30.18,30.11,10,10,10,10,5,,0.00,6,,330
2013-8-14,68,52,37,45,40,34,93,68,40,30.21,30.17,30.11,10,10,10,8,4,,0.00,2,,280
2013-8-15,73,56,39,52,45,36,88,63,36,30.13,30.10,30.07,10,10,10,8,4,,0.00,1,,274
2013-8-16,73,58,42,54,47,39,93,65,38,30.18,30.16,30.13,10,10,10,12,3,18,0.00,0,,217
2013-8-17,71,63,55,55,52,48,82,62,46,30.19,30.14,30.08,10,10,10,16,6,29,0.00,0,,217
2013-8-18,73,64,55,57,53,50,88,63,50,30.11,30.07,29.99,10,10,10,20,7,30,0.00,0,,201
2013-8-19,82,70,59,64,59,52,88,71,45,30.00,29.93,29.90,10,10,7,9,5,,0.00,1,Rain-Thunderstorm,218
2013-8-20,78,70,62,66,64,61,94,77,61,29.93,29.90,29.85,10,7,0,15,5,22,0.00,0,Fog,200
2013-8-21,80,66,51,64,54,43,88,59,26,30.06,29.91,29.80,10,9,2,15,8,25,0.05,0,Rain-Thunderstorm,267
2013-8-22,73,60,46,46,45,41,87,58,31,30.19,30.14,30.05,10,10,10,10,5,,0.00,2,,307
2013-8-23,71,56,42,52,46,37,88,67,33,30.22,30.18,30.12,10,10,7,9,2,,0.00,0,,173
2013-8-24,75,62,48,63,56,45,93,76,57,30.16,30.08,29.95,10,10,7,12,3,22,0.00,1,,160
2013-8-25,89,78,68,70,67,64,88,75,46,29.99,29.95,29.91,10,8,1,15,6,21,0.07,3,Rain-Thunderstorm,206
2013-8-26,84,74,64,66,62,55,88,70,39,30.04,30.00,29.96,10,10,7,7,3,,0.00,0,Rain-Thunderstorm,81
2013-8-27,80,68,57,66,60,52,94,72,47,30.01,29.94,29.90,10,10,5,9,2,,0.00,0,,103
2013-8-28,82,68,55,63,57,50,88,69,39,30.09,30.06,30.00,10,10,10,10,3,17,0.00,0,,211
2013-8-29,78,69,60,64,61,55,94,82,54,30.08,30.00,29.83,10,8,2,8,2,18,0.72,2,Rain-Thunderstorm,160
2013-8-30,73,66,60,63,58,55,94,76,57,30.02,29.96,29.82,10,10,5,14,6,18,0.00,4,,339
2013-8-31,71,64,57,63,58,54,94,84,69,29.98,29.86,29.74,10,6,0,10,5,18,0.21,5,Fog-Rain-Thunderstorm,173